createdAt,value
2023-02-16T00:00:28.825Z,106.95
2023-02-16T00:02:56.794Z,103.90
2023-02-16T00:05:33.673Z,100.45
2023-02-16T00:08:01.589Z,102.63
2023-02-16T00:10:34.416Z,108.45
2023-02-16T00:13:20.862Z,100.57
2023-02-16T00:15:48.357Z,102.28
2023-02-16T00:18:21.217Z,107.82
2023-02-16T00:20:49.420Z,97.07
2023-02-16T00:23:16.865Z,105.93
2023-02-16T00:25:44.274Z,105.35
2023-02-16T00:28:17.780Z,95.50
2023-02-16T00:30:45.987Z,93.45
2023-02-16T00:33:16.889Z,100.13
2023-02-16T00:35:44.979Z,101.35
2023-02-16T00:38:13.545Z,110.68
2023-02-16T00:40:42.236Z,101.13
2023-02-16T00:43:29.143Z,101.82
2023-02-16T00:45:57.797Z,99.60
2023-02-16T00:48:25.252Z,102.03
2023-02-16T00:50:54.280Z,109.47
2023-02-16T00:53:21.687Z,109.57
2023-02-16T00:55:49.078Z,109.53
2023-02-16T00:58:26.690Z,104.78
2023-02-16T01:00:58.237Z,96.65
2023-02-16T01:03:27.741Z,108.47
2023-02-16T01:06:14.524Z,101.90
2023-02-16T01:09:01.589Z,111.60
2023-02-16T01:11:29.413Z,107.32
2023-02-16T01:13:57.494Z,96.78
2023-02-16T01:16:36.630Z,114.93
2023-02-16T01:19:04.777Z,109.88
2023-02-16T01:21:32.232Z,98.75
2023-02-16T01:24:02.274Z,102.90
2023-02-16T01:26:30.630Z,97.20
2023-02-16T01:28:58.075Z,96.78
2023-02-16T01:31:25.549Z,99.28
2023-02-16T01:33:53.069Z,108.35
2023-02-16T01:36:39.854Z,101.13
2023-02-16T01:39:07.868Z,96.28
2023-02-16T01:42:03.333Z,106.65
2023-02-16T01:44:49.796Z,99.15
2023-02-16T01:47:41.035Z,96.32
2023-02-16T01:50:20.976Z,105.25
2023-02-16T01:52:57.905Z,104.15
2023-02-16T01:55:47.060Z,96.15
2023-02-16T01:58:29.697Z,103.43
2023-02-16T02:00:57.115Z,99.80
2023-02-16T02:04:09.427Z,104.30
2023-02-16T02:06:37.639Z,107.93
2023-02-16T02:09:08.162Z,112.00
2023-02-16T02:11:55.930Z,108.90
2023-02-16T02:14:35.573Z,104.10
2023-02-16T02:17:11.408Z,108.10
2023-02-16T02:20:21.100Z,107.78
2023-02-16T02:23:25.661Z,100.25
2023-02-16T02:25:59.193Z,109.68
2023-02-16T02:28:49.960Z,100.35
2023-02-16T02:31:37.047Z,106.35
2023-02-16T02:34:26.033Z,111.15
2023-02-16T02:37:14.726Z,107.15
2023-02-16T02:40:01.079Z,101.25
2023-02-16T02:43:04.592Z,110.18
2023-02-16T02:45:38.680Z,104.00
2023-02-16T02:48:06.671Z,104.18
2023-02-16T02:50:41.616Z,104.07
2023-02-16T02:53:15.618Z,110.07
2023-02-16T02:56:07.595Z,100.32
2023-02-16T02:59:12.384Z,100.57
2023-02-16T03:01:44.061Z,99.78
2023-02-16T03:04:15.692Z,104.47
2023-02-16T03:06:47.636Z,109.22
2023-02-16T03:09:16.058Z,110.22
2023-02-16T03:12:04.139Z,105.13
2023-02-16T03:14:40.191Z,113.82
2023-02-16T03:17:35.563Z,110.22
2023-02-16T03:20:27.331Z,102.20
2023-02-16T03:23:14.730Z,111.45
2023-02-16T03:26:01.768Z,110.82
2023-02-16T03:28:49.948Z,114.97
2023-02-16T03:31:22.025Z,114.68
2023-02-16T03:33:54.910Z,109.07
2023-02-16T03:36:25.066Z,105.38
2023-02-16T03:38:54.318Z,117.53
2023-02-16T03:41:21.944Z,97.85
2023-02-16T03:43:49.394Z,100.20
2023-02-16T03:46:16.927Z,100.55
2023-02-16T03:48:44.452Z,103.72
2023-02-16T03:51:11.889Z,103.28
2023-02-16T03:53:39.298Z,100.93
2023-02-16T03:56:06.830Z,101.03
2023-02-16T03:58:34.672Z,93.10
2023-02-16T04:01:02.631Z,101.55
2023-02-16T04:03:30.342Z,95.63
2023-02-16T04:05:57.806Z,93.53
2023-02-16T04:08:25.262Z,99.57
2023-02-16T04:10:54.297Z,98.57
2023-02-16T04:13:21.704Z,101.85
2023-02-16T04:15:49.655Z,99.72
2023-02-16T04:18:17.171Z,97.47
2023-02-16T04:20:44.589Z,105.00
2023-02-16T04:23:12.379Z,107.90
2023-02-16T04:25:40.053Z,98.45
2023-02-16T04:28:07.452Z,96.45
2023-02-16T04:30:35.010Z,100.45
2023-02-16T04:33:02.519Z,105.95
2023-02-16T04:35:31.104Z,103.32
2023-02-16T04:37:58.562Z,100.90
2023-02-16T04:40:25.976Z,94.20
2023-02-16T04:42:53.399Z,95.53
2023-02-16T04:45:20.963Z,94.97
2023-02-16T04:47:48.373Z,98.65
2023-02-16T04:50:15.813Z,95.10
2023-02-16T04:52:43.322Z,93.20
2023-02-16T04:55:10.856Z,94.63
2023-02-16T04:57:39.709Z,115.43
2023-02-16T05:00:08.717Z,101.05
2023-02-16T05:02:36.134Z,99.70
2023-02-16T05:05:04.018Z,107.18
2023-02-16T05:07:31.440Z,96.30
2023-02-16T05:09:58.856Z,91.80
2023-02-16T05:12:44.874Z,98.60
2023-02-16T05:15:12.335Z,96.35
2023-02-16T05:17:39.694Z,101.75
2023-02-16T05:20:07.420Z,98.30
2023-02-16T05:22:35.579Z,99.07
2023-02-16T05:25:03.003Z,104.60
2023-02-16T05:27:31.317Z,93.53
2023-02-16T05:29:59.278Z,100.38
2023-02-16T05:32:27.127Z,89.85
2023-02-16T05:34:54.571Z,96.18
2023-02-16T05:37:21.982Z,93.78
2023-02-16T05:39:49.418Z,102.78
2023-02-16T05:42:16.837Z,107.20
2023-02-16T05:44:44.246Z,101.00
2023-02-16T05:47:11.719Z,107.53
2023-02-16T05:49:39.133Z,103.10
2023-02-16T05:52:06.521Z,101.80
2023-02-16T05:54:33.937Z,102.68
2023-02-16T05:57:01.383Z,108.35
2023-02-16T05:59:28.880Z,102.82
2023-02-16T06:01:56.349Z,101.93
2023-02-16T06:04:23.828Z,105.40
2023-02-16T06:06:51.280Z,98.03
2023-02-16T06:09:18.718Z,95.57
2023-02-16T06:11:46.360Z,95.78
2023-02-16T06:14:16.881Z,105.18
2023-02-16T06:16:47.265Z,96.57
2023-02-16T06:19:16.396Z,90.50
2023-02-16T06:21:44.348Z,99.55
2023-02-16T06:24:13.214Z,100.03
2023-02-16T06:26:41.387Z,156.60
2023-02-16T06:29:09.629Z,107.07
2023-02-16T06:31:37.954Z,103.47
2023-02-16T06:34:05.859Z,103.97
2023-02-16T06:36:33.322Z,100.25
2023-02-16T06:39:00.772Z,98.53
2023-02-16T06:41:43.027Z,112.82
2023-02-16T06:44:13.579Z,93.28
2023-02-16T06:46:42.824Z,97.80
2023-02-16T06:49:15.112Z,106.50
2023-02-16T06:54:10.474Z,112.75
2023-02-16T06:56:38.157Z,103.05
2023-02-16T06:59:06.535Z,97.75
2023-02-16T07:01:34.047Z,129.82
2023-02-16T07:04:01.436Z,115.10
2023-02-16T07:06:30.876Z,99.53
2023-02-16T07:08:59.664Z,94.65
2023-02-16T07:11:27.133Z,95.05
2023-02-16T07:13:54.558Z,88.65
2023-02-16T07:16:22.040Z,93.43
2023-02-16T07:18:49.563Z,113.40
2023-02-16T07:21:17.238Z,99.90
2023-02-16T07:23:45.430Z,89.80
2023-02-16T07:26:13.016Z,99.63
2023-02-16T07:28:40.413Z,97.18
2023-02-16T07:31:13.575Z,95.82
2023-02-16T07:33:41.830Z,93.18
2023-02-16T07:36:10.937Z,98.95
2023-02-16T07:38:41.258Z,95.70
2023-02-16T07:41:09.890Z,98.80
2023-02-16T07:43:42.801Z,88.40
2023-02-16T07:46:10.680Z,89.88
2023-02-16T07:48:38.112Z,86.75
2023-02-16T07:51:06.113Z,78.78
2023-02-16T07:53:33.910Z,76.18
2023-02-16T07:56:01.455Z,106.50
2023-02-16T07:58:29.020Z,87.43
2023-02-16T08:01:05.851Z,84.35
2023-02-16T08:03:33.552Z,92.57
2023-02-16T08:06:01.986Z,91.20
2023-02-16T08:08:29.492Z,93.35
2023-02-16T08:10:56.940Z,100.70
2023-02-16T08:13:24.472Z,98.32
2023-02-16T08:15:51.891Z,101.35
2023-02-16T08:18:19.288Z,104.20
2023-02-16T08:21:02.799Z,103.03
2023-02-16T08:23:31.517Z,93.53
2023-02-16T08:25:59.399Z,105.97
2023-02-16T08:28:28.628Z,103.40
2023-02-16T08:30:57.214Z,110.07
2023-02-16T08:33:25.114Z,104.75
2023-02-16T08:35:53.135Z,97.90
2023-02-16T08:38:20.926Z,106.63
2023-02-16T08:40:51.464Z,89.85
2023-02-16T08:43:18.982Z,104.05
2023-02-16T08:45:47.821Z,107.45
2023-02-16T08:48:16.758Z,107.05
2023-02-16T08:50:53.507Z,102.75
2023-02-16T08:53:25.281Z,112.43
2023-02-16T08:55:55.726Z,82.53
2023-02-16T08:58:24.769Z,117.88
2023-02-16T09:00:52.614Z,116.15
2023-02-16T09:03:20.152Z,116.93
2023-02-16T09:05:48.896Z,109.55
2023-02-16T09:08:16.582Z,106.50
2023-02-16T09:10:44.192Z,107.45
2023-02-16T09:13:14.967Z,98.55
2023-02-16T09:15:47.382Z,100.85
2023-02-16T09:18:15.164Z,98.93
2023-02-16T09:20:46.411Z,103.57
2023-02-16T09:23:14.456Z,105.72
2023-02-16T09:25:42.094Z,100.93
2023-02-16T09:28:10.837Z,104.20
2023-02-16T09:30:39.522Z,105.90
2023-02-16T09:33:07.811Z,102.95
2023-02-16T09:35:35.286Z,112.35
2023-02-16T09:38:02.695Z,107.97
2023-02-16T09:40:30.576Z,106.10
2023-02-16T09:43:33.241Z,116.65
2023-02-16T09:46:02.614Z,106.45
2023-02-16T09:48:38.181Z,110.00
2023-02-16T09:51:09.101Z,113.80
2023-02-16T09:53:39.589Z,105.55
2023-02-16T09:56:22.742Z,103.28
2023-02-16T09:58:58.353Z,103.20
2023-02-16T10:01:31.794Z,106.43
2023-02-16T10:04:35.368Z,101.18
2023-02-16T10:07:17.198Z,105.35
2023-02-16T10:09:51.106Z,101.85
2023-02-16T10:12:27.144Z,108.72
2023-02-16T10:15:00.161Z,100.65
2023-02-16T10:17:38.456Z,99.47
2023-02-16T10:20:14.727Z,101.00
2023-02-16T10:22:49.855Z,99.57
2023-02-16T10:25:26.398Z,102.30
2023-02-16T10:28:23.045Z,107.28
2023-02-16T10:30:57.290Z,100.78
2023-02-16T10:33:39.537Z,105.03
2023-02-16T10:36:15.055Z,101.50
2023-02-16T10:38:56.461Z,99.65
2023-02-16T10:41:37.437Z,102.20
2023-02-16T10:44:21.653Z,106.18
2023-02-16T10:47:03.998Z,100.80
2023-02-16T10:49:32.871Z,99.85
2023-02-16T10:52:02.647Z,99.53
2023-02-16T10:54:32.327Z,97.10
2023-02-16T10:57:01.579Z,111.03
2023-02-16T10:59:43.764Z,101.25
2023-02-16T11:02:35.617Z,100.93
2023-02-16T11:05:23.238Z,101.77
2023-02-16T11:07:58.228Z,111.38
2023-02-16T11:10:51.832Z,110.75
2023-02-16T11:13:31.441Z,112.32
2023-02-16T11:16:05.271Z,111.43
2023-02-16T11:18:45.728Z,107.65
2023-02-16T11:21:13.392Z,104.55
2023-02-16T11:23:42.453Z,99.82
2023-02-16T11:26:12.661Z,99.13
2023-02-16T11:28:45.937Z,104.57
2023-02-16T11:31:22.406Z,102.65
2023-02-16T11:34:05.511Z,98.47
2023-02-16T11:36:40.874Z,108.00
2023-02-16T11:39:11.118Z,108.07
2023-02-16T11:41:45.052Z,103.93
2023-02-16T11:44:29.257Z,108.18
2023-02-16T11:46:59.442Z,105.75
2023-02-16T11:49:51.838Z,109.75
2023-02-16T11:52:29.429Z,100.25
2023-02-16T11:54:59.323Z,97.20
2023-02-16T11:57:33.085Z,105.50
2023-02-16T12:00:02.089Z,102.57
2023-02-16T12:03:00.703Z,103.18
2023-02-16T12:05:49.561Z,104.20
2023-02-16T12:08:23.102Z,109.70
2023-02-16T12:11:28.196Z,103.88
2023-02-16T12:14:32.414Z,112.68
2023-02-16T12:17:34.891Z,105.40
2023-02-16T12:20:32.361Z,104.78
2023-02-16T12:23:36.578Z,118.35
2023-02-16T12:26:33.157Z,117.15
2023-02-16T12:29:11.637Z,114.97
2023-02-16T12:32:06.880Z,120.40
2023-02-16T12:35:01.697Z,113.38
2023-02-16T12:37:48.299Z,117.95
2023-02-16T12:40:49.531Z,123.18
2023-02-16T12:43:39.790Z,124.35
2023-02-16T12:46:30.650Z,129.52
2023-02-16T12:49:15.418Z,123.07
2023-02-16T12:51:49.164Z,123.15
2023-02-16T12:54:40.923Z,131.35
2023-02-16T12:57:13.516Z,125.97
2023-02-16T13:00:02.420Z,128.55
2023-02-16T13:02:42.617Z,135.68
2023-02-16T13:05:33.070Z,132.02
2023-02-16T13:08:18.303Z,130.38
2023-02-16T13:11:03.412Z,137.55
2023-02-16T13:13:34.592Z,133.98
2023-02-16T13:16:30.063Z,141.50
2023-02-16T13:18:58.848Z,139.85
2023-02-16T13:21:52.150Z,126.63
2023-02-16T13:24:35.071Z,127.13
2023-02-16T13:27:40.857Z,138.70
2023-02-16T13:31:01.513Z,138.63
2023-02-16T13:33:47.607Z,142.38
2023-02-16T13:36:21.666Z,138.75
2023-02-16T13:39:19.527Z,126.32
2023-02-16T13:42:49.986Z,138.15
2023-02-16T13:45:26.196Z,132.35
2023-02-16T13:47:56.339Z,141.57
2023-02-16T13:50:25.901Z,140.77
2023-02-16T13:52:56.796Z,148.23
2023-02-16T13:55:32.762Z,153.52
2023-02-16T13:58:05.879Z,145.50
2023-02-16T14:00:39.377Z,147.10
2023-02-16T14:03:32.943Z,143.10
2023-02-16T14:06:32.868Z,144.20
2023-02-16T14:09:19.701Z,143.18
2023-02-16T14:11:59.577Z,146.43
2023-02-16T14:14:53.932Z,137.32
2023-02-16T14:17:25.107Z,157.20
2023-02-16T14:20:19.349Z,138.02
2023-02-16T14:23:00.243Z,148.55
2023-02-16T14:25:29.155Z,171.27
2023-02-16T14:28:00.429Z,151.80
2023-02-16T14:31:10.110Z,140.57
2023-02-16T14:34:05.833Z,157.15
2023-02-16T14:36:34.097Z,144.45
2023-02-16T14:39:02.200Z,154.23
2023-02-16T14:41:33.613Z,143.98
2023-02-16T14:44:57.633Z,147.88
2023-02-16T14:47:54.732Z,155.15
2023-02-16T14:50:31.538Z,154.70
2023-02-16T14:53:29.631Z,157.82
2023-02-16T14:56:20.992Z,162.95
2023-02-16T14:59:17.060Z,165.30
2023-02-16T15:01:47.117Z,166.85
2023-02-16T15:04:36.697Z,168.30
2023-02-16T15:07:05.844Z,166.20
2023-02-16T15:09:35.050Z,171.07
2023-02-16T15:12:23.615Z,169.05
2023-02-16T15:14:58.607Z,177.63
2023-02-16T15:17:31.464Z,171.70
2023-02-16T15:20:10.933Z,171.07
2023-02-16T15:22:44.386Z,179.10
2023-02-16T15:25:38.514Z,182.88
2023-02-16T15:28:12.386Z,184.27
2023-02-16T15:30:46.171Z,198.98
2023-02-16T15:33:25.787Z,182.50
2023-02-16T15:35:57.010Z,191.75
2023-02-16T15:38:31.985Z,200.27
2023-02-16T15:41:03.109Z,188.30
2023-02-16T15:43:52.314Z,189.82
2023-02-16T15:46:29.039Z,183.18
2023-02-16T15:48:57.194Z,180.60
2023-02-16T15:51:34.718Z,180.32
2023-02-16T15:54:28.119Z,191.40
2023-02-16T15:56:58.601Z,196.70
2023-02-16T15:59:35.920Z,198.82
2023-02-16T16:02:19.582Z,194.38
2023-02-16T16:04:55.349Z,192.38
2023-02-16T16:07:31.686Z,199.98
2023-02-16T16:10:00.432Z,200.48
2023-02-16T16:12:29.282Z,199.70
2023-02-16T16:15:03.127Z,185.52
2023-02-16T16:17:36.201Z,190.65
2023-02-16T16:20:36.077Z,205.68
2023-02-16T16:23:05.792Z,199.82
2023-02-16T16:25:44.912Z,200.02
2023-02-16T16:28:34.291Z,197.77
2023-02-16T16:31:10.982Z,199.63
2023-02-16T16:34:00.282Z,208.32
2023-02-16T16:36:34.865Z,207.27
2023-02-16T16:39:35.585Z,215.32
2023-02-16T16:42:53.198Z,222.25
2023-02-16T16:45:58.753Z,234.97
2023-02-16T16:48:34.706Z,218.77
2023-02-16T16:51:13.349Z,237.88
2023-02-16T16:53:59.953Z,237.45
2023-02-16T16:56:29.230Z,224.90
2023-02-16T16:58:58.821Z,229.20
2023-02-16T17:01:28.491Z,238.02
2023-02-16T17:03:56.863Z,249.02
2023-02-16T17:06:25.537Z,249.10
2023-02-16T17:08:55.238Z,254.95
2023-02-16T17:11:25.169Z,245.88
2023-02-16T17:13:55.099Z,248.18
2023-02-16T17:16:33.659Z,258.23
2023-02-16T17:19:04.672Z,255.93
2023-02-16T17:21:34.101Z,243.23
2023-02-16T17:24:02.355Z,245.35
2023-02-16T17:26:30.259Z,232.90
2023-02-16T17:28:58.255Z,314.05
2023-02-16T17:31:34.806Z,339.40
2023-02-16T17:34:13.332Z,312.83
2023-02-16T17:36:43.068Z,274.70
2023-02-16T17:39:10.922Z,278.27
2023-02-16T17:41:38.652Z,287.63
2023-02-16T17:44:09.665Z,272.17
2023-02-16T17:46:37.487Z,272.88
2023-02-16T17:49:05.320Z,273.45
2023-02-16T17:51:36.362Z,272.13
2023-02-16T17:54:06.606Z,272.63
2023-02-16T17:56:35.436Z,267.23
2023-02-16T17:59:03.600Z,276.25
2023-02-16T18:01:33.052Z,273.50
2023-02-16T18:04:04.595Z,274.90
2023-02-16T18:06:34.908Z,272.95
2023-02-16T18:09:04.982Z,288.95
2023-02-16T18:11:35.713Z,274.85
2023-02-16T18:14:03.883Z,283.52
2023-02-16T18:16:31.771Z,282.67
2023-02-16T18:19:00.059Z,283.23
2023-02-16T18:21:28.112Z,283.92
2023-02-16T18:23:55.952Z,289.77
2023-02-16T18:26:23.959Z,283.23
2023-02-16T18:28:51.757Z,276.98
2023-02-16T18:31:20.742Z,283.60
2023-02-16T18:33:49.079Z,284.83
2023-02-16T18:36:17.664Z,283.10
2023-02-16T18:38:45.588Z,278.77
2023-02-16T18:41:15.439Z,285.92
2023-02-16T18:43:43.355Z,298.90
2023-02-16T18:46:11.401Z,289.50
2023-02-16T18:48:39.353Z,287.42
2023-02-16T18:51:08.394Z,278.85
2023-02-16T18:53:39.382Z,279.38
2023-02-16T18:56:12.431Z,290.75
2023-02-16T18:58:40.580Z,296.75
2023-02-16T19:01:32.636Z,287.30
2023-02-16T19:04:01.436Z,206.65
2023-02-16T19:06:30.061Z,275.83
2023-02-16T19:09:00.493Z,296.52
2023-02-16T19:11:31.016Z,299.33
2023-02-16T19:13:58.889Z,297.23
2023-02-16T19:16:26.645Z,292.55
2023-02-16T19:18:54.814Z,308.42
2023-02-16T19:21:22.360Z,284.83
2023-02-16T19:23:53.142Z,295.08
2023-02-16T19:26:20.964Z,303.98
2023-02-16T19:28:49.073Z,303.73
2023-02-16T19:31:25.904Z,305.23
2023-02-16T19:33:54.849Z,294.80
2023-02-16T19:36:23.482Z,300.50
2023-02-16T19:38:51.470Z,294.77
2023-02-16T19:41:40.184Z,301.45
2023-02-16T19:44:08.029Z,307.25
2023-02-16T19:46:35.904Z,297.73
2023-02-16T19:49:04.445Z,291.05
2023-02-16T19:51:32.925Z,296.58
2023-02-16T19:54:10.456Z,306.52
2023-02-16T19:56:40.579Z,296.35
2023-02-16T19:59:15.461Z,287.65
2023-02-16T20:02:24.551Z,290.50
2023-02-16T20:04:57.118Z,290.13
2023-02-16T20:09:52.310Z,279.88
2023-02-16T20:12:21.087Z,294.10
2023-02-16T20:14:48.752Z,292.23
2023-02-16T20:17:21.636Z,279.42
2023-02-16T20:19:56.149Z,288.40
2023-02-16T20:22:24.172Z,268.27
2023-02-16T20:24:51.748Z,278.48
2023-02-16T20:27:19.585Z,286.10
2023-02-16T20:29:47.539Z,309.30
2023-02-16T20:32:15.768Z,285.63
2023-02-16T20:34:43.777Z,275.48
2023-02-16T20:37:11.589Z,284.33
2023-02-16T20:39:39.620Z,294.60
2023-02-16T20:42:08.411Z,285.92
2023-02-16T20:44:36.405Z,289.63
2023-02-16T20:47:04.457Z,296.63
2023-02-16T20:49:34.193Z,300.00
2023-02-16T20:52:04.152Z,299.00
2023-02-16T20:54:31.817Z,302.13
2023-02-16T20:56:59.706Z,294.35
2023-02-16T20:59:30.838Z,310.35
2023-02-16T21:01:59.462Z,306.03
2023-02-16T21:04:36.193Z,297.95
2023-02-16T21:07:05.425Z,289.98
2023-02-16T21:09:33.465Z,296.77
2023-02-16T21:12:01.513Z,292.40
2023-02-16T21:14:32.041Z,305.35
2023-02-16T21:17:02.517Z,304.20
2023-02-16T21:19:30.748Z,318.45
2023-02-16T21:22:01.553Z,317.50
2023-02-16T21:24:32.442Z,314.35
2023-02-16T21:27:00.322Z,320.85
2023-02-16T21:29:28.323Z,336.20
2023-02-16T21:32:01.961Z,324.70
2023-02-16T21:34:30.360Z,313.45
2023-02-16T21:36:59.172Z,327.33
2023-02-16T21:39:46.121Z,323.48
2023-02-16T21:42:13.957Z,318.90
2023-02-16T21:44:44.368Z,316.48
2023-02-16T21:47:32.350Z,311.50
2023-02-16T21:50:00.239Z,313.67
2023-02-16T21:52:31.080Z,310.67
2023-02-16T21:55:20.389Z,305.65
2023-02-16T21:57:48.713Z,329.48
2023-02-16T22:00:17.033Z,315.05
2023-02-16T22:02:45.057Z,307.85
2023-02-16T22:05:16.102Z,308.25
2023-02-16T22:07:44.649Z,302.67
2023-02-16T22:10:12.386Z,285.42
2023-02-16T22:12:40.874Z,300.55
2023-02-16T22:15:08.879Z,294.45
2023-02-16T22:17:36.681Z,302.00
2023-02-16T22:20:07.752Z,288.50
2023-02-16T22:22:35.834Z,286.33
2023-02-16T22:25:03.910Z,286.48
2023-02-16T22:27:31.943Z,285.05
2023-02-16T22:29:59.992Z,276.92
2023-02-16T22:32:27.923Z,298.45
2023-02-16T22:34:55.847Z,288.65
2023-02-16T22:37:27.840Z,296.50
2023-02-16T22:39:55.765Z,276.90
2023-02-16T22:42:24.060Z,286.25
2023-02-16T22:44:52.098Z,289.23
2023-02-16T22:47:22.615Z,290.52
2023-02-16T22:49:50.428Z,277.80
2023-02-16T22:52:21.125Z,284.63
2023-02-16T22:54:54.072Z,290.65
2023-02-16T22:57:37.817Z,286.83
2023-02-16T23:00:15.039Z,277.23
2023-02-16T23:05:33.862Z,268.15
2023-02-16T23:08:22.242Z,269.60
2023-02-16T23:11:02.681Z,271.45
2023-02-16T23:13:33.583Z,271.05
2023-02-16T23:16:22.904Z,263.90
2023-02-16T23:18:53.891Z,259.80
2023-02-16T23:22:00.983Z,252.27
2023-02-16T23:24:50.789Z,266.42
2023-02-16T23:27:20.304Z,263.38
2023-02-16T23:29:49.564Z,271.75
2023-02-16T23:32:17.945Z,280.20
2023-02-16T23:34:48.543Z,280.73
2023-02-16T23:37:22.280Z,267.98
2023-02-16T23:39:50.450Z,273.52
2023-02-16T23:42:18.916Z,286.13
2023-02-16T23:44:49.924Z,282.65
2023-02-16T23:47:18.308Z,289.95
2023-02-16T23:49:46.361Z,278.35
2023-02-16T23:52:14.541Z,271.85
2023-02-16T23:54:42.464Z,276.50
2023-02-16T23:57:11.454Z,281.50
2023-02-16T23:59:39.617Z,282.50
